Time;durP1;ratioP1;P1;durP2;ratioP2;P2;SDS_P1;SDS_P2;PMS_P1;PMS_P2;Temp;Humidity;BMP_temperature;BMP_pressure;BME280_temperature;BME280_humidity;BME280_pressure;Samples;Min_cycle;Max_cycle;Signal;HPM_P1;HPM_P2
2022/12/03 00:01:13;;;;;;;81.90;32.60;;;;;;;-2.25;81.21;101785.44;103889;1324;174926;-70
2022/12/03 00:03:48;;;;;;;72.60;32.40;;;;;;;-2.29;80.93;101781.71;104024;1327;37646;-68
2022/12/03 00:06:23;;;;;;;66.50;29.00;;;;;;;-2.31;81.15;101781.65;104028;1321;37134;-69
2022/12/03 00:09:02;;;;;;;67.80;31.10;;;;;;;-2.30;81.21;101782.02;103967;1322;37270;-69
2022/12/03 00:11:37;;;;;;;67.50;30.20;;;;;;;-2.27;81.10;101782.27;103982;1327;37111;-70
2022/12/03 00:14:13;;;;;;;60.20;26.60;;;;;;;-2.26;81.12;101781.30;103957;1321;37123;-69
2022/12/03 00:16:48;;;;;;;83.50;35.90;;;;;;;-2.31;81.11;101773.61;103981;1325;37280;-68
2022/12/03 00:19:22;;;;;;;75.50;31.70;;;;;;;-2.33;81.18;101774.38;103992;1327;37632;-68
2022/12/03 00:21:59;;;;;;;68.00;32.30;;;;;;;-2.31;81.13;101771.06;103975;1320;37148;-67
2022/12/03 00:24:34;;;;;;;58.90;25.40;;;;;;;-2.26;81.26;101772.77;103971;1324;37338;-69
2022/12/03 00:27:10;;;;;;;56.50;28.30;;;;;;;-2.26;81.11;101772.79;103956;1327;37220;-70
2022/12/03 00:29:48;;;;;;;81.30;34.20;;;;;;;-2.22;81.18;101771.21;103972;1324;37263;-68
2022/12/03 00:32:22;;;;;;;71.30;29.30;;;;;;;-2.19;81.19;101764.15;103983;1325;37105;-68
2022/12/03 00:35:01;;;;;;;66.10;30.00;;;;;;;-2.22;80.75;101764.73;103976;1321;37089;-68
2022/12/03 00:37:47;;;;;;;67.10;28.80;;;;;;;-2.27;80.89;101764.17;103986;1321;37040;-67
2022/12/03 00:40:29;;;;;;;61.00;25.80;;;;;;;-2.31;80.81;101760.42;104003;1324;37168;-69
2022/12/03 00:43:03;;;;;;;66.70;29.20;;;;;;;-2.29;80.91;101759.14;104008;1325;37120;-69
2022/12/03 00:45:38;;;;;;;62.30;26.50;;;;;;;-2.27;80.97;101758.02;104007;1322;37314;-68
2022/12/03 00:48:12;;;;;;;61.10;27.10;;;;;;;-2.26;80.85;101757.05;104038;1321;36287;-68
2022/12/03 00:50:47;;;;;;;59.80;27.20;;;;;;;-2.27;81.01;101757.16;103998;1322;37354;-68
2022/12/03 00:53:24;;;;;;;57.10;26.00;;;;;;;-2.26;80.97;101759.61;104008;1321;37141;-69
2022/12/03 00:56:00;;;;;;;56.00;26.30;;;;;;;-2.29;80.88;101759.83;103972;1322;37282;-69
2022/12/03 00:58:35;;;;;;;61.80;26.90;;;;;;;-2.34;80.80;101762.90;103995;1324;37123;-69
2022/12/03 01:01:14;;;;;;;49.70;24.50;;;;;;;-2.32;80.89;101760.73;103990;1326;37022;-69
2022/12/03 01:03:49;;;;;;;64.80;27.10;;;;;;;-2.28;81.08;101758.16;103962;1327;36068;-68
2022/12/03 01:06:23;;;;;;;74.30;28.60;;;;;;;-2.26;80.93;101759.95;103981;1327;37096;-68
2022/12/03 01:08:58;;;;;;;62.60;28.10;;;;;;;-2.27;80.93;101754.41;103992;1321;37120;-69
2022/12/03 01:11:40;;;;;;;106.10;43.90;;;;;;;-2.29;80.98;101754.55;103964;1321;37059;-69
2022/12/03 01:14:20;;;;;;;66.30;26.80;;;;;;;-2.29;80.88;101749.94;103995;1327;37439;-70
2022/12/03 01:16:56;;;;;;;71.60;31.80;;;;;;;-2.30;80.87;101749.70;104008;1321;37061;-68
2022/12/03 01:19:30;;;;;;;55.40;23.30;;;;;;;-2.28;80.95;101748.09;104023;1321;36571;-70
2022/12/03 01:22:06;;;;;;;71.30;29.10;;;;;;;-2.26;81.03;101747.80;104033;1321;37166;-68
2022/12/03 01:24:40;;;;;;;73.40;29.00;;;;;;;-2.28;80.85;101745.16;104022;1321;37205;-69
2022/12/03 01:27:16;;;;;;;54.20;23.70;;;;;;;-2.30;80.82;101744.94;104001;1321;38987;-69
2022/12/03 01:29:51;;;;;;;63.40;29.40;;;;;;;-2.30;80.92;101747.66;103994;1321;37189;-68
2022/12/03 01:32:32;;;;;;;56.30;25.80;;;;;;;-2.33;80.90;101743.98;103989;1321;37067;-68
2022/12/03 01:35:10;;;;;;;80.10;35.10;;;;;;;-2.31;80.90;101741.29;103990;1321;37123;-70
2022/12/03 01:37:44;;;;;;;104.30;42.10;;;;;;;-2.32;80.80;101745.52;104018;1325;37146;-68
2022/12/03 01:40:20;;;;;;;59.80;24.30;;;;;;;-2.32;81.06;101745.04;103971;1327;37105;-68
2022/12/03 01:42:57;;;;;;;72.30;28.50;;;;;;;-2.31;81.10;101743.02;104005;1321;37128;-70
2022/12/03 01:45:36;;;;;;;71.40;30.70;;;;;;;-2.30;81.09;101746.83;103986;1324;37067;-67
2022/12/03 01:48:15;;;;;;;67.50;28.20;;;;;;;-2.29;81.03;101742.08;103967;1327;35941;-70
2022/12/03 01:50:51;;;;;;;114.20;43.50;;;;;;;-2.24;81.13;101741.57;103818;1321;38259;-68
2022/12/03 01:53:29;;;;;;;80.00;34.30;;;;;;;-2.19;81.16;101740.21;103998;1327;37016;-69
2022/12/03 01:56:04;;;;;;;93.60;36.00;;;;;;;-2.17;80.96;101735.86;103969;1321;37171;-69
2022/12/03 01:58:43;;;;;;;85.10;36.00;;;;;;;-2.18;80.89;101739.21;103991;1321;37436;-69
2022/12/03 02:01:20;;;;;;;72.00;30.50;;;;;;;-2.25;80.71;101736.23;104009;1321;38273;-69
2022/12/03 02:03:56;;;;;;;72.00;30.50;;;;;;;-2.24;80.66;101737.81;104013;1327;36140;-69
2022/12/03 02:06:36;;;;;;;77.10;34.50;;;;;;;-2.26;80.68;101737.41;104025;1324;37124;-69
2022/12/03 02:09:11;;;;;;;60.30;30.00;;;;;;;-2.25;80.79;101741.02;103875;1321;37095;-70
2022/12/03 02:11:49;;;;;;;51.70;24.50;;;;;;;-2.21;80.77;101742.54;103981;1324;37593;-69
2022/12/03 02:14:24;;;;;;;62.40;33.50;;;;;;;-2.17;80.77;101742.33;104034;1321;38353;-68
2022/12/03 02:17:00;;;;;;;51.90;25.90;;;;;;;-2.20;80.57;101742.21;103996;1322;37082;-69
2022/12/03 02:19:37;;;;;;;51.70;23.40;;;;;;;-2.20;80.48;101739.48;104003;1320;37089;-69
2022/12/03 02:22:19;;;;;;;60.80;27.00;;;;;;;-2.20;80.64;101741.19;103982;1321;37954;-70
2022/12/03 02:25:02;;;;;;;50.60;26.20;;;;;;;-2.17;80.69;101739.10;104020;1321;37102;-67
2022/12/03 02:27:39;;;;;;;50.80;24.00;;;;;;;-2.12;80.77;101734.64;103948;1324;37077;-67
2022/12/03 02:30:17;;;;;;;55.00;24.60;;;;;;;-2.10;80.57;101738.98;103940;1324;37122;-70
2022/12/03 02:32:54;;;;;;;49.30;24.00;;;;;;;-2.09;80.73;101741.77;103992;1321;37013;-68
2022/12/03 02:35:34;;;;;;;48.90;23.50;;;;;;;-2.07;80.47;101743.02;103811;1326;37065;-67
2022/12/03 02:38:16;;;;;;;50.80;22.60;;;;;;;-2.03;80.56;101743.65;103974;1325;37018;-67
2022/12/03 02:40:56;;;;;;;42.20;21.80;;;;;;;-2.00;80.53;101742.59;103957;1319;37132;-67
2022/12/03 02:43:31;;;;;;;47.80;23.80;;;;;;;-1.98;80.42;101739.23;103970;1318;37527;-70
2022/12/03 02:46:05;;;;;;;44.70;21.40;;;;;;;-1.98;80.11;101740.41;103803;1321;37224;-70
2022/12/03 02:48:43;;;;;;;45.70;24.30;;;;;;;-2.07;80.03;101740.96;103797;1322;37914;-68
2022/12/03 02:51:20;;;;;;;49.60;24.10;;;;;;;-2.11;79.97;101741.36;103852;1321;37509;-69
2022/12/03 02:53:57;;;;;;;53.20;23.10;;;;;;;-2.14;79.86;101744.13;104000;1321;37143;-68
2022/12/03 02:56:35;;;;;;;39.20;19.40;;;;;;;-2.17;79.89;101740.10;103766;1321;37091;-68
2022/12/03 02:59:13;;;;;;;37.40;19.90;;;;;;;-2.16;80.01;101743.41;103789;1321;36051;-67
2022/12/03 03:01:48;;;;;;;38.70;19.80;;;;;;;-2.12;80.01;101738.39;103769;1305;37230;-69
2022/12/03 03:04:27;;;;;;;44.80;21.70;;;;;;;-2.07;80.17;101735.65;103799;1327;37130;-69
2022/12/03 03:07:02;;;;;;;38.80;19.40;;;;;;;-2.05;80.10;101736.23;103636;1322;174974;-69
2022/12/03 03:09:42;;;;;;;40.30;23.30;;;;;;;-2.07;80.01;101735.83;103662;1321;174945;-69
2022/12/03 03:12:20;;;;;;;38.60;19.30;;;;;;;-2.13;79.45;101736.16;103757;1321;37596;-69
2022/12/03 03:14:55;;;;;;;40.00;19.90;;;;;;;-2.15;79.82;101737.98;103751;1321;37587;-67
2022/12/03 03:17:33;;;;;;;35.70;20.00;;;;;;;-2.11;79.81;101736.04;103725;1321;37669;-66
2022/12/03 03:20:12;;;;;;;42.20;20.80;;;;;;;-2.07;80.02;101732.59;103724;1321;36854;-70
2022/12/03 03:22:51;;;;;;;36.30;20.00;;;;;;;-2.01;80.01;101730.39;103740;1321;37535;-69
2022/12/03 03:25:29;;;;;;;41.50;21.00;;;;;;;-1.98;79.99;101728.11;103746;1320;36837;-69
2022/12/03 03:28:06;;;;;;;37.30;18.80;;;;;;;-1.97;79.64;101726.96;103760;1321;37088;-67
2022/12/03 03:30:51;;;;;;;39.40;20.90;;;;;;;-1.95;79.71;101727.38;103652;1327;174941;-67
2022/12/03 03:33:34;;;;;;;30.70;18.50;;;;;;;-1.88;80.06;101730.89;103817;1327;37007;-68
2022/12/03 03:36:11;;;;;;;34.20;19.20;;;;;;;-1.86;79.71;101731.12;103745;1321;37121;-67
2022/12/03 03:38:45;;;;;;;38.90;19.90;;;;;;;-1.91;79.29;101727.52;103816;1321;37319;-67
2022/12/03 03:41:23;;;;;;;34.80;20.70;;;;;;;-1.91;79.57;101724.29;103773;1321;37155;-67
2022/12/03 03:44:04;;;;;;;32.90;17.80;;;;;;;-1.91;79.71;101724.29;103780;1321;37109;-67
2022/12/03 03:46:41;;;;;;;33.00;17.00;;;;;;;-1.89;79.35;101723.46;103727;1327;37231;-68
2022/12/03 03:49:17;;;;;;;31.30;18.10;;;;;;;-1.90;79.33;101724.27;103737;1327;37032;-68
2022/12/03 03:51:55;;;;;;;32.50;18.30;;;;;;;-1.88;79.35;101724.89;103734;1321;37962;-69
2022/12/03 03:54:33;;;;;;;33.10;18.50;;;;;;;-1.86;79.38;101722.73;103749;1309;36252;-68
2022/12/03 03:57:09;;;;;;;36.00;18.20;;;;;;;-1.91;78.91;101718.95;103692;1327;36126;-68
2022/12/03 03:59:49;;;;;;;29.70;18.20;;;;;;;-1.96;78.99;101711.77;103727;1321;36161;-67
2022/12/03 04:02:24;;;;;;;37.90;19.40;;;;;;;-1.98;78.83;101715.27;103718;1321;37242;-69
2022/12/03 04:04:58;;;;;;;31.00;18.40;;;;;;;-2.02;78.77;101712.75;103751;1321;36729;-69
2022/12/03 04:07:37;;;;;;;31.90;17.70;;;;;;;-2.04;79.16;101716.77;103737;1327;37019;-67
2022/12/03 04:13:14;;;;;;;36.50;18.90;;;;;;;-2.09;79.18;101719.71;103756;1321;37139;-67
2022/12/03 04:15:50;;;;;;;30.80;18.10;;;;;;;-2.09;79.03;101715.27;103751;1327;37169;-68
2022/12/03 04:18:45;;;;;;;35.90;19.60;;;;;;;-2.10;79.15;101716.94;103815;1327;37049;-69
2022/12/03 04:24:18;;;;;;;30.10;17.50;;;;;;;-2.10;79.28;101719.83;103754;1327;37220;-67
2022/12/03 04:29:45;;;;;;;35.40;18.90;;;;;;;-2.03;79.22;101712.70;103746;1321;37078;-68
2022/12/03 04:38:07;;;;;;;39.30;19.10;;;;;;;-2.02;79.66;101710.04;103712;1324;37343;-69
2022/12/03 04:41:04;;;;;;;34.10;17.90;;;;;;;-2.01;79.42;101714.52;103744;1327;37401;-68
2022/12/03 04:44:32;;;;;;;33.50;18.80;;;;;;;-2.05;79.08;101707.87;103751;1327;37062;-68
2022/12/03 04:46:36;;;;;;;35.80;19.80;;;;;;;-2.05;79.40;101703.94;103745;1321;38799;-69
2022/12/03 04:49:15;;;;;;;37.50;18.80;;;;;;;-2.01;79.62;101699.98;103753;1311;37550;-68
2022/12/03 04:51:51;;;;;;;35.40;19.60;;;;;;;-1.98;79.43;101701.61;103758;1321;37087;-69
2022/12/03 04:54:25;;;;;;;40.20;20.20;;;;;;;-2.00;79.28;101701.05;103780;1327;37064;-69
2022/12/03 04:56:59;;;;;;;33.60;18.00;;;;;;;-2.02;79.28;101694.81;103742;1327;37262;-69
2022/12/03 04:59:41;;;;;;;31.10;17.20;;;;;;;-2.00;79.15;101695.39;103827;1322;37200;-70
2022/12/03 05:02:20;;;;;;;34.00;18.80;;;;;;;-1.98;79.41;101692.73;103775;1322;37094;-69
2022/12/03 05:04:56;;;;;;;36.80;18.20;;;;;;;-1.94;79.25;101694.89;103823;1321;38971;-69
2022/12/03 05:07:34;;;;;;;33.40;18.60;;;;;;;-1.97;79.27;101696.02;103776;1321;37176;-69
2022/12/03 05:10:19;;;;;;;34.40;18.90;;;;;;;-2.00;79.17;101695.56;103607;1321;172709;-68
2022/12/03 05:12:56;;;;;;;37.30;20.10;;;;;;;-2.00;79.32;101694.20;103807;1327;36207;-69
2022/12/03 05:15:33;;;;;;;33.70;19.10;;;;;;;-1.99;79.10;101696.78;103766;1321;36173;-69
2022/12/03 05:18:07;;;;;;;33.30;20.10;;;;;;;-2.01;79.10;101696.18;103765;1321;37594;-68
2022/12/03 05:20:45;;;;;;;31.10;16.50;;;;;;;-2.00;79.17;101694.71;103744;1322;37004;-67
2022/12/03 05:23:20;;;;;;;33.40;19.90;;;;;;;-1.96;79.22;101695.71;103733;1327;37295;-68
2022/12/03 05:26:02;;;;;;;36.10;19.10;;;;;;;-1.95;79.17;101692.31;103757;1327;37061;-66
2022/12/03 05:28:44;;;;;;;31.70;18.60;;;;;;;-1.98;79.11;101692.39;103737;1321;37224;-69
2022/12/03 05:31:18;;;;;;;39.60;21.30;;;;;;;-2.01;79.25;101695.51;103780;1321;37010;-68
2022/12/03 05:33:55;;;;;;;37.70;20.10;;;;;;;-2.04;79.24;101694.92;103776;1327;37074;-68
2022/12/03 05:36:33;;;;;;;35.10;19.20;;;;;;;-2.00;79.27;101689.41;103757;1327;37048;-67
2022/12/03 05:39:08;;;;;;;31.90;18.60;;;;;;;-1.99;79.37;101690.28;103779;1321;37030;-68
2022/12/03 05:44:38;;;;;;;37.10;21.70;;;;;;;-1.99;79.20;101679.85;103791;1321;37193;-68
2022/12/03 05:47:16;;;;;;;39.60;20.40;;;;;;;-1.98;79.44;101683.15;103795;1320;37077;-68
2022/12/03 05:49:51;;;;;;;35.10;18.40;;;;;;;-1.98;79.28;101678.54;103765;1324;37116;-68
2022/12/03 05:52:38;;;;;;;32.70;18.00;;;;;;;-1.97;79.21;101677.01;103752;1326;37327;-68
2022/12/03 05:55:14;;;;;;;31.10;17.30;;;;;;;-1.94;79.32;101676.42;103781;1326;36093;-67
2022/12/03 05:57:50;;;;;;;31.20;18.90;;;;;;;-1.96;79.22;101679.81;103838;1327;38315;-69
2022/12/03 06:00:25;;;;;;;35.20;20.30;;;;;;;-1.96;79.50;101675.54;103751;1322;37455;-69
2022/12/03 06:03:01;;;;;;;30.50;17.50;;;;;;;-1.97;79.21;101674.13;103781;1321;36851;-68
2022/12/03 06:05:40;;;;;;;29.80;18.20;;;;;;;-1.98;79.09;101670.47;103750;1322;37564;-70
2022/12/03 06:08:17;;;;;;;35.50;18.30;;;;;;;-1.95;79.30;101672.13;103783;1321;36142;-68
2022/12/03 06:10:51;;;;;;;29.50;18.60;;;;;;;-1.97;79.17;101678.04;103758;1327;36132;-70
2022/12/03 06:13:34;;;;;;;36.40;19.60;;;;;;;-1.99;79.20;101677.45;103767;1327;37162;-69
2022/12/03 06:16:10;;;;;;;41.50;19.90;;;;;;;-1.99;79.09;101677.63;103742;1321;37046;-68
2022/12/03 06:18:45;;;;;;;32.80;18.80;;;;;;;-1.99;79.28;101675.75;103784;1322;37148;-68
2022/12/03 06:21:27;;;;;;;35.60;18.60;;;;;;;-1.98;79.44;101672.38;103754;1321;37568;-68
2022/12/03 06:24:07;;;;;;;31.90;18.60;;;;;;;-1.98;79.23;101675.96;103781;1321;38177;-68
2022/12/03 06:26:44;;;;;;;31.30;19.20;;;;;;;-1.91;79.40;101675.18;103788;1321;37047;-68
2022/12/03 06:29:22;;;;;;;33.30;19.30;;;;;;;-1.85;79.39;101678.47;103791;1321;37130;-68
2022/12/03 06:32:00;;;;;;;37.40;19.40;;;;;;;-1.80;79.29;101685.96;103762;1327;38917;-67
2022/12/03 06:34:41;;;;;;;30.60;19.20;;;;;;;-1.83;79.22;101687.94;103787;1321;37174;-69
2022/12/03 06:37:18;;;;;;;36.00;20.10;;;;;;;-1.85;79.10;101690.42;103788;1320;37200;-70
2022/12/03 06:39:52;;;;;;;29.70;18.00;;;;;;;-1.90;79.06;101695.23;103809;1321;38761;-68
2022/12/03 06:42:27;;;;;;;40.50;18.50;;;;;;;-1.90;79.20;101694.71;103815;1321;37259;-69
2022/12/03 06:45:04;;;;;;;29.10;17.20;;;;;;;-1.88;79.07;101695.14;103820;1322;37350;-69
2022/12/03 06:47:38;;;;;;;35.80;19.80;;;;;;;-1.84;79.40;101700.21;103774;1321;37086;-67
2022/12/03 06:50:13;;;;;;;32.10;18.10;;;;;;;-1.83;79.19;101699.38;103761;1321;37285;-69
2022/12/03 06:52:51;;;;;;;31.20;18.50;;;;;;;-1.80;79.50;101700.16;103778;1321;36290;-69
2022/12/03 06:55:29;;;;;;;32.70;18.30;;;;;;;-1.80;79.16;101702.73;103782;1327;37295;-67
2022/12/03 06:58:06;;;;;;;31.60;18.30;;;;;;;-1.76;79.47;101706.27;103954;1321;36304;-68
2022/12/03 07:00:43;;;;;;;31.40;18.00;;;;;;;-1.76;79.00;101711.09;103754;1321;36599;-68
2022/12/03 07:03:22;;;;;;;31.10;17.80;;;;;;;-1.74;79.24;101708.94;103963;1328;37101;-67
2022/12/03 07:06:02;;;;;;;29.90;18.00;;;;;;;-1.72;79.25;101705.94;103783;1321;36138;-69
2022/12/03 07:08:40;;;;;;;35.90;20.20;;;;;;;-1.68;79.43;101705.70;103535;1321;397153;-70
2022/12/03 07:14:05;;;;;;;40.90;24.60;;;;;;;-1.63;79.23;101699.73;103771;1321;37098;-69
2022/12/03 07:16:41;;;;;;;44.70;25.40;;;;;;;-1.53;79.45;101701.42;103771;1323;37064;-70
2022/12/03 07:19:18;;;;;;;35.00;21.10;;;;;;;-1.47;79.01;101702.61;103737;1325;37123;-70
2022/12/03 07:21:52;;;;;;;38.20;21.40;;;;;;;-1.51;78.85;101705.59;103760;1327;36173;-69
2022/12/03 07:24:26;;;;;;;34.40;21.00;;;;;;;-1.53;78.71;101697.98;103755;1321;37024;-70
2022/12/03 07:27:00;;;;;;;34.60;21.50;;;;;;;-1.58;78.85;101694.09;103743;1327;37327;-69
2022/12/03 07:29:34;;;;;;;34.90;19.90;;;;;;;-1.57;78.94;101696.34;103764;1321;37109;-68
2022/12/03 07:32:09;;;;;;;30.70;20.00;;;;;;;-1.51;79.23;101698.03;103738;1327;37430;-70
2022/12/03 07:34:43;;;;;;;31.50;18.40;;;;;;;-1.45;79.38;101695.51;103744;1321;37185;-67
2022/12/03 07:37:23;;;;;;;34.70;20.50;;;;;;;-1.41;79.16;101694.10;103707;1327;36450;-68
2022/12/03 07:40:05;;;;;;;37.50;20.60;;;;;;;-1.40;79.13;101692.06;103791;1325;37665;-70
2022/12/03 07:42:40;;;;;;;39.40;19.50;;;;;;;-1.42;78.90;101688.95;103792;1321;37465;-67
2022/12/03 07:45:15;;;;;;;46.10;21.80;;;;;;;-1.44;78.92;101689.87;103814;1321;37163;-67
2022/12/03 07:47:50;;;;;;;33.60;19.60;;;;;;;-1.45;79.17;101689.35;103837;1327;37186;-70
2022/12/03 07:50:27;;;;;;;30.80;17.80;;;;;;;-1.43;79.04;101685.83;103814;1322;38264;-71
2022/12/03 07:53:00;;;;;;;31.40;19.30;;;;;;;-1.38;79.24;101684.79;103793;1320;37336;-69
2022/12/03 07:55:39;;;;;;;31.50;18.10;;;;;;;-1.37;79.17;101686.52;103749;1321;37144;-68
2022/12/03 07:58:14;;;;;;;37.10;22.30;;;;;;;-1.39;79.04;101683.89;103755;1322;37283;-68
2022/12/03 08:00:52;;;;;;;36.90;22.10;;;;;;;-1.46;79.25;101683.16;103735;1320;37095;-69
2022/12/03 08:03:29;;;;;;;37.80;19.30;;;;;;;-1.48;79.50;101678.13;103791;1321;37097;-70
2022/12/03 08:06:05;;;;;;;32.20;18.60;;;;;;;-1.41;79.70;101681.42;103745;1321;36380;-69
2022/12/03 08:08:39;;;;;;;41.10;21.10;;;;;;;-1.38;79.62;101677.92;103765;1321;37110;-69
2022/12/03 08:11:20;;;;;;;45.50;22.10;;;;;;;-1.32;79.84;101683.77;103745;1321;37099;-69
2022/12/03 08:13:53;;;;;;;40.80;22.60;;;;;;;-1.29;79.59;101685.22;103720;1327;37020;-70
2022/12/03 08:16:39;;;;;;;41.60;23.60;;;;;;;-1.29;79.64;101683.67;103749;1322;38187;-70
2022/12/03 08:19:17;;;;;;;47.70;24.10;;;;;;;-1.30;79.72;101679.55;103955;1325;37047;-69
2022/12/03 08:21:54;;;;;;;40.20;23.30;;;;;;;-1.26;79.84;101677.78;103729;1321;37027;-70
2022/12/03 08:24:29;;;;;;;54.40;29.30;;;;;;;-1.19;79.86;101678.35;103787;1327;37048;-68
2022/12/03 08:27:12;;;;;;;44.30;24.80;;;;;;;-1.19;79.89;101679.36;103755;1321;38510;-68
2022/12/03 08:29:46;;;;;;;60.50;31.10;;;;;;;-1.12;80.19;101682.50;103733;1321;37254;-68
2022/12/03 08:32:21;;;;;;;60.20;29.30;;;;;;;-1.07;80.05;101691.41;103817;1321;37254;-71
2022/12/03 08:34:57;;;;;;;41.10;23.10;;;;;;;-1.07;80.03;101684.23;103671;1321;187531;-69
2022/12/03 08:37:36;;;;;;;41.70;22.90;;;;;;;-1.04;79.90;101686.00;103743;1320;37287;-68
2022/12/03 08:40:28;;;;;;;44.00;23.90;;;;;;;-1.03;80.09;101689.79;103758;1321;37107;-71
2022/12/03 08:43:17;;;;;;;41.10;22.30;;;;;;;-1.04;80.20;101690.45;103808;1321;37707;-68
2022/12/03 08:46:14;;;;;;;36.40;21.00;;;;;;;-1.03;79.91;101687.24;103802;1325;36174;-69
2022/12/03 08:49:14;;;;;;;39.80;23.80;;;;;;;-0.97;80.22;101689.48;103804;1321;39945;-69
2022/12/03 08:51:49;;;;;;;53.70;26.90;;;;;;;-0.97;80.19;101692.22;103787;1326;37011;-68
2022/12/03 08:54:25;;;;;;;33.60;20.30;;;;;;;-0.92;80.28;101693.21;103804;1322;37343;-69
2022/12/03 08:57:15;;;;;;;47.20;25.90;;;;;;;-0.87;80.40;101689.77;103731;1321;37135;-69
2022/12/03 08:59:52;;;;;;;50.60;26.70;;;;;;;-0.83;80.07;101690.06;103744;1327;37107;-69
2022/12/03 09:02:59;;;;;;;33.30;21.60;;;;;;;-0.77;80.44;101689.54;103615;1327;174581;-69
2022/12/03 09:05:42;;;;;;;33.90;21.60;;;;;;;-0.76;80.21;101680.66;103972;1318;37179;-69
2022/12/03 09:08:27;;;;;;;39.20;22.60;;;;;;;-0.73;80.26;101674.56;103724;1327;37060;-69
2022/12/03 09:11:04;;;;;;;35.00;21.30;;;;;;;-0.72;79.95;101673.92;103768;1321;37055;-70
2022/12/03 09:13:39;;;;;;;32.70;20.20;;;;;;;-0.74;79.87;101672.16;103828;1322;37197;-68
2022/12/03 09:16:14;;;;;;;43.80;24.00;;;;;;;-0.79;79.95;101673.20;103809;1321;37574;-68
2022/12/03 09:18:53;;;;;;;40.20;23.20;;;;;;;-0.75;80.19;101676.06;103796;1321;37382;-68
2022/12/03 09:21:28;;;;;;;31.40;19.80;;;;;;;-0.70;80.33;101673.63;103762;1327;37961;-68
2022/12/03 09:24:07;;;;;;;31.50;18.40;;;;;;;-0.68;80.23;101672.17;103753;1321;37215;-71
2022/12/03 09:26:42;;;;;;;34.00;20.10;;;;;;;-0.73;80.06;101669.95;103736;1323;37181;-70
2022/12/03 09:29:16;;;;;;;34.80;20.40;;;;;;;-0.71;80.41;101661.27;103775;1322;37321;-69
2022/12/03 09:31:50;;;;;;;31.60;20.20;;;;;;;-0.63;80.60;101656.38;103813;1327;37061;-69
2022/12/03 09:34:28;;;;;;;34.40;19.70;;;;;;;-0.54;80.69;101660.04;103737;1321;37227;-69
2022/12/03 09:37:08;;;;;;;31.40;18.40;;;;;;;-0.58;80.27;101657.19;103721;1322;36129;-70
2022/12/03 09:39:44;;;;;;;34.90;20.30;;;;;;;-0.58;80.49;101651.88;103734;1321;37292;-70
2022/12/03 09:42:20;;;;;;;35.70;19.80;;;;;;;-0.50;80.74;101652.62;103780;1321;36696;-70
2022/12/03 09:44:55;;;;;;;31.10;20.20;;;;;;;-0.41;80.56;101648.39;103788;1325;36878;-69
2022/12/03 09:47:35;;;;;;;33.80;20.00;;;;;;;-0.33;80.90;101642.61;103790;1321;38224;-70
2022/12/03 09:50:17;;;;;;;32.30;19.00;;;;;;;-0.30;80.68;101644.59;103777;1321;37286;-70
2022/12/03 09:52:56;;;;;;;33.80;20.00;;;;;;;-0.27;80.52;101643.30;103790;1325;37258;-71
2022/12/03 09:55:33;;;;;;;30.50;19.10;;;;;;;-0.28;80.34;101646.35;103798;1321;37382;-68
2022/12/03 09:58:16;;;;;;;28.90;20.00;;;;;;;-0.33;80.16;101640.92;103812;1327;38806;-69
2022/12/03 10:00:54;;;;;;;33.60;20.00;;;;;;;-0.29;80.42;101640.66;103784;1324;37042;-69
2022/12/03 10:03:31;;;;;;;33.10;20.70;;;;;;;-0.30;80.32;101636.52;103786;1325;37382;-69
2022/12/03 10:06:10;;;;;;;34.70;21.10;;;;;;;-0.25;80.70;101638.20;103790;1326;37140;-70
2022/12/03 10:08:48;;;;;;;32.10;19.30;;;;;;;-0.18;80.59;101637.87;103767;1321;37033;-68
2022/12/03 10:11:27;;;;;;;31.10;21.60;;;;;;;-0.15;80.50;101635.55;103742;1321;36996;-70
2022/12/03 10:14:07;;;;;;;34.20;21.70;;;;;;;-0.12;80.41;101632.20;103808;1325;37834;-69
2022/12/03 10:16:42;;;;;;;43.30;25.60;;;;;;;-0.07;80.37;101630.45;103772;1321;37095;-71
2022/12/03 10:19:31;;;;;;;33.70;22.20;;;;;;;0.06;80.82;101627.16;103734;1321;36002;-71
2022/12/03 10:22:10;;;;;;;29.90;20.30;;;;;;;0.20;80.82;101628.20;103777;1324;36521;-69
2022/12/03 10:24:44;;;;;;;46.70;26.30;;;;;;;0.31;80.49;101628.11;103775;1321;37519;-70
2022/12/03 10:27:31;;;;;;;49.00;26.40;;;;;;;0.36;79.95;101629.80;103754;1320;37248;-69
2022/12/03 10:30:35;;;;;;;38.50;23.90;;;;;;;0.42;80.02;101628.02;103742;1327;37038;-70
2022/12/03 10:33:15;;;;;;;43.50;22.80;;;;;;;0.54;79.81;101621.11;103785;1321;36800;-70
2022/12/03 10:36:09;;;;;;;42.30;24.10;;;;;;;0.55;79.41;101624.90;103791;1321;36154;-71
2022/12/03 10:38:49;;;;;;;46.40;27.50;;;;;;;0.49;79.31;101627.52;103819;1321;37073;-68
2022/12/03 10:41:33;;;;;;;42.70;26.30;;;;;;;0.49;79.39;101626.67;103961;1326;37494;-68
2022/12/03 10:44:20;;;;;;;36.00;22.30;;;;;;;0.53;79.48;101626.56;103759;1322;37455;-69
2022/12/03 10:47:12;;;;;;;37.00;23.20;;;;;;;0.50;78.84;101624.27;103782;1319;37099;-69
2022/12/03 10:49:47;;;;;;;38.00;22.60;;;;;;;0.43;79.16;101616.05;103761;1321;37031;-70
2022/12/03 10:52:34;;;;;;;40.90;25.30;;;;;;;0.45;79.35;101610.44;103762;1327;37299;-69
2022/12/03 10:55:12;;;;;;;43.80;27.60;;;;;;;0.47;79.36;101607.39;103759;1320;37294;-70
2022/12/03 10:57:48;;;;;;;38.00;23.10;;;;;;;0.47;79.50;101607.39;103773;1321;37061;-69
2022/12/03 11:00:24;;;;;;;39.10;22.00;;;;;;;0.47;79.44;101609.95;103742;1323;37138;-70
2022/12/03 11:03:03;;;;;;;43.10;26.10;;;;;;;0.47;79.39;101606.70;103772;1322;36914;-70
2022/12/03 11:05:47;;;;;;;40.80;24.10;;;;;;;0.48;79.20;101604.67;103777;1321;37066;-69
2022/12/03 11:08:24;;;;;;;36.00;21.40;;;;;;;0.47;79.54;101600.52;103740;1323;36541;-69
2022/12/03 11:11:59;;;;;;;41.50;25.40;;;;;;;0.48;79.53;101599.17;103739;1321;36735;-70
2022/12/03 11:15:28;;;;;;;38.80;22.40;;;;;;;0.45;79.56;101604.60;103815;1321;37132;-71
2022/12/03 11:18:02;;;;;;;42.20;23.80;;;;;;;0.39;79.54;101598.09;103823;1322;37394;-70
2022/12/03 11:21:26;;;;;;;35.70;23.20;;;;;;;0.38;79.52;101602.02;103749;1320;38264;-70
2022/12/03 11:24:33;;;;;;;40.30;23.20;;;;;;;0.47;80.06;101597.44;103842;1327;37072;-69
2022/12/03 11:27:22;;;;;;;51.90;27.00;;;;;;;0.50;79.75;101602.83;103702;1321;37085;-70
2022/12/03 11:29:59;;;;;;;42.60;24.90;;;;;;;0.49;79.88;101607.29;103770;1321;36990;-69
2022/12/03 11:36:20;;;;;;;38.40;23.40;;;;;;;0.50;79.83;101595.95;101484;1358;545031;-69
2022/12/03 11:39:10;;;;;;;43.40;25.80;;;;;;;0.50;79.88;101593.75;104660;1313;36967;-68
2022/12/03 11:45:35;;;;;;;57.70;28.70;;;;;;;0.58;80.36;101594.41;104654;1313;37220;-68
2022/12/03 11:48:28;;;;;;;55.30;29.00;;;;;;;0.52;79.86;101595.48;104727;1313;37088;-69
2022/12/03 11:51:12;;;;;;;64.70;29.60;;;;;;;0.52;80.11;101595.48;104419;1310;37373;-70
2022/12/03 11:57:50;;;;;;;58.30;30.40;;;;;;;0.64;80.38;101582.85;104688;1316;174908;-70
2022/12/03 12:00:31;;;;;;;59.10;30.10;;;;;;;0.70;80.23;101577.17;104833;1310;36169;-69
2022/12/03 12:03:07;;;;;;;49.60;28.30;;;;;;;0.73;80.40;101573.63;104845;1316;37314;-70
2022/12/03 12:05:50;;;;;;;54.60;25.60;;;;;;;0.76;80.25;101567.33;104788;1311;37071;-69
2022/12/03 12:08:26;;;;;;;36.20;21.00;;;;;;;0.82;80.52;101564.19;104823;1317;38197;-68
2022/12/03 12:11:17;;;;;;;43.60;25.40;;;;;;;0.86;80.26;101565.30;104766;1316;35998;-70
2022/12/03 12:13:59;;;;;;;36.50;22.70;;;;;;;0.84;79.97;101568.70;104863;1314;37153;-69
2022/12/03 12:16:51;;;;;;;40.80;23.70;;;;;;;0.89;80.13;101570.52;104784;1316;37128;-70
2022/12/03 12:20:10;;;;;;;42.00;24.10;;;;;;;0.90;80.00;101572.79;105046;1306;37434;-69
2022/12/03 12:22:48;;;;;;;48.40;28.70;;;;;;;0.92;80.17;101573.84;104991;1313;36990;-70
2022/12/03 12:25:45;;;;;;;46.30;24.80;;;;;;;0.93;80.02;101573.88;104989;1299;37191;-69
2022/12/03 12:29:12;;;;;;;40.60;23.50;;;;;;;0.93;79.98;101577.12;105001;1306;37388;-70